createdAt,value
2022-08-27T00:00:18.469Z,51.63
2022-08-27T00:00:52.704Z,46.75
2022-08-27T00:01:28.866Z,43.42
2022-08-27T00:02:03.021Z,41.53
2022-08-27T00:02:36.769Z,49.78
2022-08-27T00:03:11.515Z,46.25
2022-08-27T00:03:45.311Z,39.65
2022-08-27T00:04:21.823Z,41.33
2022-08-27T00:04:56.897Z,54.33
2022-08-27T00:05:31.583Z,43.72
2022-08-27T00:06:05.383Z,47.35
2022-08-27T00:06:41.807Z,44.03
2022-08-27T00:07:16.238Z,44.92
2022-08-27T00:07:49.700Z,54.08
2022-08-27T00:08:25.923Z,41.30
2022-08-27T00:09:00.163Z,44.33
2022-08-27T00:09:36.773Z,42.80
2022-08-27T00:10:12.480Z,45.65
2022-08-27T00:10:47.486Z,52.88
2022-08-27T00:11:22.979Z,41.35
2022-08-27T00:11:57.989Z,50.58
2022-08-27T00:12:31.401Z,49.83
2022-08-27T00:13:06.922Z,47.03
2022-08-27T00:13:42.776Z,49.83
2022-08-27T00:14:16.280Z,47.47
2022-08-27T00:14:51.322Z,38.45
2022-08-27T00:15:25.862Z,46.17
2022-08-27T00:16:00.544Z,45.17
2022-08-27T00:16:35.675Z,49.65
2022-08-27T00:17:10.246Z,45.95
2022-08-27T00:17:46.044Z,50.72
2022-08-27T00:18:22.818Z,52.17
2022-08-27T00:18:57.500Z,50.28
2022-08-27T00:19:31.750Z,41.40
2022-08-27T00:20:08.816Z,50.30
2022-08-27T00:20:42.948Z,37.80
2022-08-27T00:21:18.214Z,40.30
2022-08-27T00:21:54.218Z,48.72
2022-08-27T00:22:28.504Z,45.75
2022-08-27T00:23:02.813Z,46.10
2022-08-27T00:23:39.403Z,44.17
2022-08-27T00:24:12.582Z,41.30
2022-08-27T00:24:48.784Z,53.92
2022-08-27T00:25:24.778Z,51.13
2022-08-27T00:25:59.378Z,51.33
2022-08-27T00:26:34.027Z,42.17
2022-08-27T00:27:09.470Z,50.13
2022-08-27T00:27:43.226Z,44.72
2022-08-27T00:28:18.458Z,46.20
2022-08-27T00:28:53.821Z,47.53
2022-08-27T00:29:27.984Z,43.95
2022-08-27T00:30:04.972Z,48.28
2022-08-27T00:30:41.020Z,46.75
2022-08-27T00:31:15.586Z,49.33
2022-08-27T00:31:51.971Z,44.83
2022-08-27T00:32:29.189Z,51.53
2022-08-27T00:33:04.928Z,50.72
2022-08-27T00:33:38.885Z,46.25
2022-08-27T00:34:14.664Z,50.58
2022-08-27T00:34:48.401Z,39.97
2022-08-27T00:35:22.758Z,41.30
2022-08-27T00:35:58.978Z,54.75
2022-08-27T00:36:33.810Z,48.33
2022-08-27T00:37:06.975Z,48.28
2022-08-27T00:37:42.045Z,42.38
2022-08-27T00:38:16.278Z,45.55
2022-08-27T00:38:53.847Z,50.58
2022-08-27T00:39:28.946Z,45.13
2022-08-27T00:40:05.099Z,49.25
2022-08-27T00:40:40.046Z,42.75
2022-08-27T00:41:17.175Z,52.20
2022-08-27T00:41:52.760Z,44.00
2022-08-27T00:42:26.926Z,47.30
2022-08-27T00:43:05.819Z,53.55
2022-08-27T00:43:47.514Z,48.88
2022-08-27T00:44:21.104Z,45.75
2022-08-27T00:44:55.578Z,42.70
2022-08-27T00:45:29.372Z,43.25
2022-08-27T00:46:06.541Z,46.13
2022-08-27T00:46:43.781Z,44.15
2022-08-27T00:47:19.083Z,43.40
2022-08-27T00:47:59.577Z,48.97
2022-08-27T00:48:36.601Z,47.90
2022-08-27T00:49:11.080Z,53.15
2022-08-27T00:49:46.643Z,42.65
2022-08-27T00:50:25.283Z,59.28
2022-08-27T00:51:00.065Z,49.33
2022-08-27T00:51:34.123Z,44.90
2022-08-27T00:52:10.650Z,52.83
2022-08-27T00:52:46.047Z,50.65
2022-08-27T00:53:21.000Z,48.13
2022-08-27T00:53:56.269Z,43.28
2022-08-27T00:54:31.170Z,47.22
2022-08-27T00:55:08.593Z,44.88
2022-08-27T00:55:45.884Z,52.58
2022-08-27T00:56:21.054Z,48.10
2022-08-27T00:56:55.830Z,40.10
2022-08-27T00:57:30.612Z,43.08
2022-08-27T00:58:07.183Z,39.45
2022-08-27T00:58:42.762Z,46.58
2022-08-27T00:59:19.362Z,50.28
2022-08-27T00:59:53.772Z,53.63
2022-08-27T01:00:27.631Z,45.88
2022-08-27T01:01:02.494Z,44.50
2022-08-27T01:01:56.933Z,42.83
2022-08-27T01:02:30.962Z,41.67
2022-08-27T01:03:06.798Z,42.63
2022-08-27T01:03:40.768Z,42.28
2022-08-27T01:04:15.315Z,41.33
2022-08-27T01:04:52.388Z,49.65
2022-08-27T01:05:27.526Z,41.40
2022-08-27T01:06:02.115Z,54.05
2022-08-27T01:06:38.617Z,55.53
2022-08-27T01:07:12.866Z,50.35
2022-08-27T01:07:48.397Z,51.05
2022-08-27T01:08:23.777Z,45.80
2022-08-27T01:09:00.489Z,54.25
2022-08-27T01:09:34.400Z,46.17
2022-08-27T01:10:15.061Z,43.65
2022-08-27T01:10:49.320Z,46.38
2022-08-27T01:11:23.108Z,44.70
2022-08-27T01:11:58.296Z,42.30
2022-08-27T01:12:33.692Z,40.70
2022-08-27T01:13:09.282Z,40.50
2022-08-27T01:13:59.508Z,44.25
2022-08-27T01:14:35.782Z,47.65
2022-08-27T01:15:14.932Z,48.45
2022-08-27T01:15:53.202Z,49.97
2022-08-27T01:16:29.384Z,42.88
2022-08-27T01:17:04.068Z,48.20
2022-08-27T01:17:38.166Z,46.90
2022-08-27T01:18:13.765Z,43.70
2022-08-27T01:18:48.311Z,52.15
2022-08-27T01:19:28.915Z,44.80
2022-08-27T01:20:06.639Z,43.95
2022-08-27T01:20:44.705Z,51.63
2022-08-27T01:21:25.604Z,43.15
2022-08-27T01:22:00.894Z,41.22
2022-08-27T01:22:39.799Z,47.00
2022-08-27T01:23:19.470Z,47.78
2022-08-27T01:23:56.437Z,48.78
2022-08-27T01:24:36.325Z,45.25
2022-08-27T01:25:11.910Z,45.65
2022-08-27T01:25:47.093Z,47.38
2022-08-27T01:26:21.862Z,48.05
2022-08-27T01:26:58.287Z,55.13
2022-08-27T01:27:31.912Z,47.67
2022-08-27T01:28:07.005Z,46.90
2022-08-27T01:28:42.496Z,42.83
2022-08-27T01:29:17.187Z,56.35
2022-08-27T01:29:51.820Z,46.22
2022-08-27T01:30:25.343Z,47.50
2022-08-27T01:30:59.664Z,39.80
2022-08-27T01:31:34.686Z,45.15
2022-08-27T01:32:11.324Z,47.55
2022-08-27T01:32:46.176Z,36.50
2022-08-27T01:33:22.601Z,49.78
2022-08-27T01:33:57.477Z,60.28
2022-08-27T01:34:32.035Z,54.47
2022-08-27T01:35:08.149Z,54.22
2022-08-27T01:35:42.717Z,44.17
2022-08-27T01:36:16.437Z,48.28
2022-08-27T01:36:50.985Z,44.30
2022-08-27T01:37:31.679Z,46.80
2022-08-27T01:38:06.159Z,54.33
2022-08-27T01:38:46.511Z,45.17
2022-08-27T01:39:23.280Z,54.47
2022-08-27T01:40:00.301Z,48.47
2022-08-27T01:40:35.358Z,50.75
2022-08-27T01:41:08.848Z,45.63
2022-08-27T01:41:42.794Z,44.78
2022-08-27T01:42:18.991Z,47.38
2022-08-27T01:42:53.982Z,45.00
2022-08-27T01:43:28.676Z,53.33
2022-08-27T01:44:06.381Z,55.10
2022-08-27T01:44:44.741Z,51.90
2022-08-27T01:45:23.055Z,41.88
2022-08-27T01:45:58.246Z,52.30
2022-08-27T01:46:32.266Z,54.38
2022-08-27T01:47:07.393Z,63.15
2022-08-27T01:47:43.328Z,49.80
2022-08-27T01:48:18.217Z,46.70
2022-08-27T01:48:51.282Z,43.83
2022-08-27T01:49:26.930Z,50.00
2022-08-27T01:50:03.299Z,51.20
2022-08-27T01:50:38.917Z,68.88
2022-08-27T01:51:12.294Z,45.28
2022-08-27T01:51:45.401Z,51.50
2022-08-27T01:52:22.436Z,50.30
2022-08-27T01:52:57.794Z,48.90
2022-08-27T01:53:33.264Z,52.90
2022-08-27T01:54:07.997Z,47.22
2022-08-27T01:54:42.320Z,47.65
2022-08-27T01:55:20.617Z,44.20
2022-08-27T01:55:54.904Z,54.35
2022-08-27T01:56:29.765Z,51.60
2022-08-27T01:57:04.710Z,44.10
2022-08-27T01:57:38.827Z,52.42
2022-08-27T01:58:15.112Z,49.70
2022-08-27T01:58:49.801Z,53.17
2022-08-27T01:59:25.830Z,51.30
2022-08-27T02:00:15.399Z,52.78
2022-08-27T02:00:56.378Z,48.45
2022-08-27T02:01:31.496Z,51.25
2022-08-27T02:02:05.659Z,52.25
2022-08-27T02:02:39.804Z,52.15
2022-08-27T02:03:13.939Z,48.60
2022-08-27T02:03:48.899Z,49.55
2022-08-27T02:04:24.102Z,46.88
2022-08-27T02:04:58.716Z,52.22
2022-08-27T02:05:32.599Z,52.63
2022-08-27T02:06:19.845Z,70.97
2022-08-27T02:06:53.890Z,50.55
2022-08-27T02:07:27.154Z,65.30
2022-08-27T02:08:02.175Z,48.25
2022-08-27T02:08:37.089Z,47.22
2022-08-27T02:09:10.637Z,54.50
2022-08-27T02:09:47.491Z,49.35
2022-08-27T02:10:25.223Z,46.33
2022-08-27T02:11:00.346Z,541.50
2022-08-27T02:11:35.723Z,267.83
2022-08-27T02:12:19.554Z,73.30
2022-08-27T02:12:54.012Z,45.40
2022-08-27T02:13:28.355Z,59.42
2022-08-27T02:14:02.343Z,43.50
2022-08-27T02:14:46.906Z,48.75
2022-08-27T02:15:21.110Z,49.40
2022-08-27T02:15:55.706Z,42.30
2022-08-27T02:16:32.686Z,46.72
2022-08-27T02:17:06.498Z,48.97
2022-08-27T02:17:41.030Z,52.85
2022-08-27T02:18:15.910Z,45.97
2022-08-27T02:18:49.394Z,56.90
2022-08-27T02:19:22.906Z,55.63
2022-08-27T02:19:59.072Z,55.50
2022-08-27T02:20:32.774Z,56.95
2022-08-27T02:21:07.035Z,61.67
2022-08-27T02:21:41.936Z,50.03
2022-08-27T02:22:16.580Z,59.58
2022-08-27T02:22:51.246Z,70.38
2022-08-27T02:23:24.602Z,62.50
2022-08-27T02:23:59.443Z,56.10
2022-08-27T02:24:34.660Z,66.00
2022-08-27T02:25:10.322Z,51.50
2022-08-27T02:25:47.967Z,51.30
2022-08-27T02:26:23.634Z,58.30
2022-08-27T02:26:58.349Z,52.28
2022-08-27T02:27:32.661Z,60.40
2022-08-27T02:28:07.584Z,69.22
2022-08-27T02:28:42.274Z,57.95
2022-08-27T02:29:16.813Z,53.17
2022-08-27T02:29:51.901Z,57.08
2022-08-27T02:30:27.336Z,53.55
2022-08-27T02:31:02.827Z,63.65
2022-08-27T02:31:37.641Z,50.40
2022-08-27T02:32:17.585Z,47.72
2022-08-27T02:33:07.443Z,42.42
2022-08-27T02:33:41.538Z,52.92
2022-08-27T02:34:16.963Z,52.90
2022-08-27T02:34:51.815Z,65.22
2022-08-27T02:35:26.566Z,74.38
2022-08-27T02:36:01.405Z,48.40
2022-08-27T02:36:38.418Z,50.53
2022-08-27T02:37:12.177Z,58.20
2022-08-27T02:37:47.276Z,57.85
2022-08-27T02:38:21.070Z,52.15
2022-08-27T02:38:56.122Z,59.75
2022-08-27T02:39:31.142Z,65.47
2022-08-27T02:40:06.680Z,60.80
2022-08-27T02:40:41.901Z,55.03
2022-08-27T02:41:17.591Z,59.17
2022-08-27T02:41:52.484Z,58.85
2022-08-27T02:42:27.686Z,53.42
2022-08-27T02:43:01.950Z,57.83
2022-08-27T02:43:36.833Z,52.97
2022-08-27T02:44:11.397Z,54.38
2022-08-27T02:44:49.397Z,63.65
2022-08-27T02:45:23.181Z,47.75
2022-08-27T02:45:58.110Z,52.95
2022-08-27T02:46:33.542Z,53.72
2022-08-27T02:47:07.340Z,60.95
2022-08-27T02:47:42.000Z,49.33
2022-08-27T02:48:16.536Z,62.67
2022-08-27T02:48:50.795Z,59.38
2022-08-27T02:49:24.534Z,70.43
2022-08-27T02:49:59.862Z,58.58
2022-08-27T02:50:34.518Z,55.55
2022-08-27T02:51:08.976Z,57.55
2022-08-27T02:51:46.011Z,53.47
2022-08-27T02:52:24.212Z,51.95
2022-08-27T02:53:00.827Z,59.85
2022-08-27T02:53:35.666Z,57.70
2022-08-27T02:54:09.686Z,50.95
2022-08-27T02:54:46.155Z,57.78
2022-08-27T02:55:20.714Z,61.13
2022-08-27T02:55:57.035Z,58.17
2022-08-27T02:56:33.445Z,52.38
2022-08-27T02:57:07.134Z,57.08
2022-08-27T02:57:41.241Z,56.17
2022-08-27T02:58:17.454Z,57.22
2022-08-27T02:58:51.212Z,53.13
2022-08-27T02:59:25.089Z,54.67
2022-08-27T03:00:00.762Z,54.83
2022-08-27T03:00:33.847Z,53.88
2022-08-27T03:01:13.820Z,47.22
2022-08-27T03:01:49.563Z,52.00
2022-08-27T03:02:23.659Z,62.92
2022-08-27T03:02:59.547Z,49.13
2022-08-27T03:03:35.763Z,54.25
2022-08-27T03:04:15.109Z,55.25
2022-08-27T03:04:50.330Z,58.83
2022-08-27T03:05:27.425Z,54.67
2022-08-27T03:06:01.356Z,50.85
2022-08-27T03:06:35.223Z,50.45
2022-08-27T03:07:14.232Z,53.05
2022-08-27T03:07:52.503Z,55.58
2022-08-27T03:08:27.262Z,61.63
2022-08-27T03:09:06.238Z,48.97
2022-08-27T03:09:39.893Z,62.08
2022-08-27T03:10:15.030Z,59.58
2022-08-27T03:10:51.697Z,73.55
2022-08-27T03:11:25.569Z,52.75
2022-08-27T03:12:01.030Z,50.33
2022-08-27T03:12:37.991Z,53.58
2022-08-27T03:13:11.723Z,51.20
2022-08-27T03:13:45.833Z,51.90
2022-08-27T03:14:20.462Z,59.83
2022-08-27T03:14:54.093Z,62.83
2022-08-27T03:15:27.375Z,52.28
2022-08-27T03:16:02.342Z,59.40
2022-08-27T03:16:37.091Z,51.38
2022-08-27T03:17:28.526Z,53.70
2022-08-27T03:18:20.946Z,62.13
2022-08-27T03:18:55.263Z,47.28
2022-08-27T03:19:29.462Z,61.97
2022-08-27T03:20:04.650Z,58.58
2022-08-27T03:20:41.615Z,73.30
2022-08-27T03:21:20.197Z,53.92
2022-08-27T03:21:54.324Z,60.38
2022-08-27T03:22:28.998Z,66.72
2022-08-27T03:23:03.385Z,53.47
2022-08-27T03:23:38.852Z,52.97
2022-08-27T03:24:14.801Z,56.72
2022-08-27T03:24:49.276Z,60.17
2022-08-27T03:25:23.681Z,57.80
2022-08-27T03:25:58.490Z,55.72
2022-08-27T03:26:33.410Z,55.63
2022-08-27T03:27:09.242Z,56.45
2022-08-27T03:27:43.275Z,51.05
2022-08-27T03:28:20.631Z,56.60
2022-08-27T03:28:57.303Z,66.82
2022-08-27T03:29:31.623Z,62.40
2022-08-27T03:30:11.973Z,49.95
2022-08-27T03:30:48.844Z,64.60
2022-08-27T03:31:28.333Z,66.15
2022-08-27T03:32:01.943Z,72.07
2022-08-27T03:32:36.588Z,61.92
2022-08-27T03:33:12.146Z,54.17
2022-08-27T03:33:46.655Z,51.13
2022-08-27T03:34:20.764Z,55.35
2022-08-27T03:34:55.886Z,61.90
2022-08-27T03:35:30.068Z,62.25
2022-08-27T03:36:04.792Z,63.67
2022-08-27T03:36:40.229Z,54.53
2022-08-27T03:37:14.266Z,55.28
2022-08-27T03:37:49.391Z,49.08
2022-08-27T03:38:24.359Z,65.30
2022-08-27T03:38:58.938Z,54.95
2022-08-27T03:39:32.677Z,53.03
2022-08-27T03:40:08.278Z,54.03
2022-08-27T03:40:43.816Z,59.88
2022-08-27T03:41:18.533Z,71.50
2022-08-27T03:41:54.899Z,55.95
2022-08-27T03:42:31.787Z,54.03
2022-08-27T03:43:05.669Z,62.28
2022-08-27T03:43:40.272Z,69.28
2022-08-27T03:44:21.266Z,63.42
2022-08-27T03:44:55.323Z,61.05
2022-08-27T03:45:29.226Z,88.85
2022-08-27T03:46:17.259Z,99.45
2022-08-27T03:46:51.636Z,100.88
2022-08-27T03:47:26.357Z,105.28
2022-08-27T03:48:00.437Z,82.50
2022-08-27T03:48:34.985Z,63.15
2022-08-27T03:49:08.849Z,73.53
2022-08-27T03:49:48.810Z,63.90
2022-08-27T03:50:22.908Z,67.45
2022-08-27T03:50:57.741Z,66.20
2022-08-27T03:51:32.895Z,64.22
2022-08-27T03:52:07.342Z,77.97
2022-08-27T03:52:41.418Z,71.70
2022-08-27T03:53:18.500Z,80.25
2022-08-27T03:53:53.023Z,76.25
2022-08-27T03:54:26.826Z,72.60
2022-08-27T03:55:01.804Z,61.58
2022-08-27T03:55:37.109Z,70.85
2022-08-27T03:56:10.329Z,71.13
2022-08-27T03:56:45.790Z,75.55
2022-08-27T03:57:20.138Z,75.15
2022-08-27T03:57:56.260Z,74.75
2022-08-27T03:58:29.911Z,69.90
2022-08-27T03:59:03.737Z,77.55
2022-08-27T03:59:38.454Z,90.13
2022-08-27T04:00:15.007Z,86.40
2022-08-27T04:00:51.731Z,82.75
2022-08-27T04:01:28.493Z,87.05
2022-08-27T04:02:02.800Z,77.78
2022-08-27T04:02:38.801Z,84.25
2022-08-27T04:03:13.347Z,77.57
2022-08-27T04:03:47.961Z,73.32
2022-08-27T04:04:24.570Z,69.75
2022-08-27T04:04:59.906Z,85.10
2022-08-27T04:05:33.542Z,78.88
2022-08-27T04:06:08.802Z,82.72
2022-08-27T04:06:42.928Z,94.43
2022-08-27T04:07:16.797Z,102.80
2022-08-27T04:07:52.073Z,101.85
2022-08-27T04:08:26.753Z,88.68
2022-08-27T04:09:00.448Z,88.53
2022-08-27T04:09:34.757Z,87.00
2022-08-27T04:10:10.637Z,92.50
2022-08-27T04:10:43.775Z,85.95
2022-08-27T04:11:17.890Z,93.90
2022-08-27T04:11:51.719Z,94.15
2022-08-27T04:12:25.354Z,97.75
2022-08-27T04:13:01.295Z,112.03
2022-08-27T04:13:35.290Z,88.97
2022-08-27T04:14:19.747Z,92.18
2022-08-27T04:15:02.140Z,83.07
2022-08-27T04:15:35.259Z,81.90
2022-08-27T04:16:15.928Z,85.93
2022-08-27T04:16:50.751Z,94.03
2022-08-27T04:17:28.228Z,87.40
2022-08-27T04:18:03.428Z,105.72
2022-08-27T04:18:38.254Z,91.72
2022-08-27T04:19:13.723Z,106.82
2022-08-27T04:19:51.827Z,102.63
2022-08-27T04:20:35.012Z,97.07
2022-08-27T04:21:12.198Z,89.03
2022-08-27T04:21:47.497Z,96.40
2022-08-27T04:22:21.817Z,94.85
2022-08-27T04:22:56.280Z,99.82
2022-08-27T04:23:32.876Z,93.10
2022-08-27T04:24:06.146Z,94.97
2022-08-27T04:24:40.768Z,100.18
2022-08-27T04:25:17.540Z,100.90
2022-08-27T04:25:50.765Z,98.68
2022-08-27T04:26:25.057Z,99.53
2022-08-27T04:27:00.285Z,99.72
2022-08-27T04:27:34.789Z,105.88
2022-08-27T04:28:10.823Z,99.55
2022-08-27T04:28:48.692Z,94.85
2022-08-27T04:29:22.680Z,98.13
2022-08-27T04:29:57.729Z,92.40
2022-08-27T04:30:33.138Z,97.32
2022-08-27T04:31:13.898Z,100.82
2022-08-27T04:31:51.132Z,110.15
2022-08-27T04:32:29.182Z,96.10
2022-08-27T04:33:03.820Z,111.97
2022-08-27T04:33:37.958Z,94.60
2022-08-27T04:34:12.131Z,86.72
2022-08-27T04:34:45.397Z,98.30
2022-08-27T04:35:20.630Z,99.65
2022-08-27T04:35:59.348Z,93.82
2022-08-27T04:36:34.275Z,105.40
2022-08-27T04:37:08.271Z,99.97
2022-08-27T04:37:44.193Z,102.03
2022-08-27T04:38:19.010Z,105.70
2022-08-27T04:38:52.197Z,110.00
2022-08-27T04:39:26.053Z,101.03
2022-08-27T04:40:01.704Z,111.40
2022-08-27T04:40:55.928Z,100.45
2022-08-27T04:41:34.120Z,99.70
2022-08-27T04:42:09.416Z,100.50
2022-08-27T04:42:43.741Z,99.85
2022-08-27T04:43:18.950Z,107.43
2022-08-27T04:43:55.200Z,122.68
2022-08-27T04:44:29.830Z,118.53
2022-08-27T04:45:03.890Z,112.38
2022-08-27T04:45:45.321Z,109.10
2022-08-27T04:46:23.237Z,121.28
2022-08-27T04:46:57.412Z,108.85
2022-08-27T04:47:32.906Z,116.68
2022-08-27T04:48:07.614Z,126.97
2022-08-27T04:48:41.080Z,120.85
2022-08-27T04:49:17.798Z,124.80
2022-08-27T04:49:50.712Z,124.03
2022-08-27T04:50:24.881Z,125.93
2022-08-27T04:51:05.421Z,119.63
2022-08-27T04:51:41.866Z,131.05
2022-08-27T04:52:18.024Z,120.10
2022-08-27T04:52:51.812Z,118.15
2022-08-27T04:53:26.971Z,119.75
2022-08-27T04:54:02.402Z,120.93
2022-08-27T04:54:36.885Z,117.15
2022-08-27T04:55:12.708Z,119.05
2022-08-27T04:55:46.743Z,122.80
2022-08-27T04:56:22.411Z,124.93
2022-08-27T04:56:58.181Z,118.75
2022-08-27T04:57:32.226Z,129.10
2022-08-27T04:58:06.959Z,129.00
2022-08-27T04:58:43.041Z,120.25
2022-08-27T04:59:17.266Z,132.93
2022-08-27T04:59:52.805Z,121.93
2022-08-27T05:00:26.818Z,128.18
2022-08-27T05:01:02.182Z,121.43
2022-08-27T05:01:37.356Z,120.25
2022-08-27T05:02:12.126Z,133.07
2022-08-27T05:02:46.739Z,126.13
2022-08-27T05:03:24.396Z,126.63
2022-08-27T05:04:00.146Z,125.65
2022-08-27T05:04:34.526Z,123.43
2022-08-27T05:05:14.204Z,117.10
2022-08-27T05:05:51.170Z,137.73
2022-08-27T05:06:27.810Z,132.98
2022-08-27T05:07:02.224Z,129.90
2022-08-27T05:07:35.485Z,130.57
2022-08-27T05:08:11.550Z,141.25
2022-08-27T05:08:46.007Z,142.02
2022-08-27T05:09:20.145Z,128.25
2022-08-27T05:09:59.186Z,124.13
2022-08-27T05:10:33.319Z,136.35
2022-08-27T05:11:08.680Z,129.75
2022-08-27T05:11:43.261Z,128.13
2022-08-27T05:12:26.411Z,126.03
2022-08-27T05:13:00.555Z,121.32
2022-08-27T05:13:34.607Z,129.52
2022-08-27T05:14:11.974Z,136.93
2022-08-27T05:14:47.698Z,132.93
2022-08-27T05:15:22.019Z,135.55
2022-08-27T05:16:00.584Z,131.32
2022-08-27T05:16:37.105Z,118.53
2022-08-27T05:17:10.634Z,115.93
2022-08-27T05:17:44.390Z,122.78
2022-08-27T05:18:19.544Z,119.10
2022-08-27T05:18:53.748Z,112.72
2022-08-27T05:19:28.040Z,116.80
2022-08-27T05:20:02.349Z,106.25
2022-08-27T05:20:43.232Z,120.63
2022-08-27T05:21:18.382Z,123.82
2022-08-27T05:21:53.439Z,112.53
2022-08-27T05:22:29.439Z,120.65
2022-08-27T05:23:03.358Z,118.90
2022-08-27T05:23:36.971Z,113.72
2022-08-27T05:24:14.369Z,114.30
2022-08-27T05:24:50.314Z,104.07
2022-08-27T05:25:24.955Z,117.90
2022-08-27T05:26:00.650Z,105.85
2022-08-27T05:26:35.309Z,115.30
2022-08-27T05:27:10.194Z,113.78
2022-08-27T05:27:47.271Z,109.90
2022-08-27T05:28:28.040Z,106.20
2022-08-27T05:29:03.778Z,110.95
2022-08-27T05:29:39.306Z,113.93
2022-08-27T05:30:16.672Z,96.28
2022-08-27T05:30:52.582Z,99.15
2022-08-27T05:32:06.763Z,107.93
2022-08-27T05:32:40.544Z,108.70
2022-08-27T05:33:15.983Z,114.30
2022-08-27T05:33:50.739Z,107.00
2022-08-27T05:34:26.882Z,109.20
2022-08-27T05:35:03.016Z,101.75
2022-08-27T05:35:42.096Z,110.30
2022-08-27T05:36:17.376Z,94.72
2022-08-27T05:36:52.286Z,100.40
2022-08-27T05:37:26.789Z,94.45
2022-08-27T05:38:00.397Z,103.43
2022-08-27T05:38:37.173Z,96.43
2022-08-27T05:39:10.522Z,96.30
2022-08-27T05:39:46.269Z,99.20
2022-08-27T05:40:20.779Z,110.50
2022-08-27T05:41:04.456Z,100.55
2022-08-27T05:41:40.123Z,98.55
2022-08-27T05:42:13.907Z,100.20
2022-08-27T05:42:51.227Z,99.35
2022-08-27T05:43:26.207Z,94.90
2022-08-27T05:44:07.717Z,103.50
2022-08-27T05:44:55.818Z,100.82
2022-08-27T05:45:29.891Z,96.75
2022-08-27T05:46:06.547Z,104.10
2022-08-27T05:46:41.593Z,103.22
2022-08-27T05:47:17.061Z,109.18
2022-08-27T05:47:50.905Z,101.63
2022-08-27T05:48:25.737Z,104.32
2022-08-27T05:49:00.323Z,108.55
2022-08-27T05:49:34.846Z,107.45
2022-08-27T05:50:09.291Z,114.45
2022-08-27T05:50:44.813Z,109.18
2022-08-27T05:51:25.239Z,109.22
2022-08-27T05:51:59.621Z,104.07
2022-08-27T05:52:35.491Z,105.10
2022-08-27T05:53:10.802Z,109.70
2022-08-27T05:53:44.791Z,98.82
2022-08-27T05:54:20.281Z,103.63
2022-08-27T05:54:53.945Z,99.88
2022-08-27T05:55:28.011Z,112.95
2022-08-27T05:56:03.606Z,104.75
2022-08-27T05:56:39.355Z,113.13
2022-08-27T05:57:14.893Z,109.13
2022-08-27T05:57:48.547Z,99.82
2022-08-27T05:58:39.931Z,109.10
2022-08-27T05:59:34.592Z,102.18
2022-08-27T06:00:29.939Z,110.60
2022-08-27T06:01:10.163Z,116.45
2022-08-27T06:01:46.988Z,107.18
2022-08-27T06:02:21.762Z,112.18
2022-08-27T06:02:55.903Z,108.47
2022-08-27T06:03:31.662Z,110.47
2022-08-27T06:04:06.519Z,111.80
2022-08-27T06:04:41.590Z,115.80
2022-08-27T06:05:17.142Z,105.13
2022-08-27T06:05:51.500Z,107.85
2022-08-27T06:06:25.164Z,111.30
2022-08-27T06:07:00.077Z,114.85
2022-08-27T06:07:35.297Z,110.28
2022-08-27T06:08:09.128Z,117.10
2022-08-27T06:08:44.692Z,115.32
2022-08-27T06:09:19.862Z,113.57
2022-08-27T06:09:55.296Z,114.18
2022-08-27T06:10:30.070Z,112.93
2022-08-27T06:11:06.150Z,119.85
2022-08-27T06:11:40.756Z,113.18
2022-08-27T06:12:14.725Z,114.22
2022-08-27T06:12:48.413Z,123.55
2022-08-27T06:13:23.066Z,118.82
2022-08-27T06:13:56.835Z,127.18
2022-08-27T06:14:32.245Z,128.07
2022-08-27T06:15:07.287Z,123.65
2022-08-27T06:15:43.396Z,133.00
2022-08-27T06:16:20.949Z,121.90
2022-08-27T06:16:55.839Z,123.63
2022-08-27T06:17:32.100Z,130.90
2022-08-27T06:18:06.579Z,124.68
2022-08-27T06:18:40.186Z,121.60
2022-08-27T06:19:14.967Z,119.95
2022-08-27T06:19:49.069Z,125.95
2022-08-27T06:20:25.784Z,129.10
2022-08-27T06:21:00.144Z,125.38
2022-08-27T06:21:35.114Z,123.43
2022-08-27T06:22:10.799Z,120.47
2022-08-27T06:22:46.146Z,125.20
2022-08-27T06:23:28.187Z,118.50
2022-08-27T06:24:01.689Z,118.32
2022-08-27T06:24:34.788Z,118.65
2022-08-27T06:25:11.139Z,126.32
2022-08-27T06:25:45.503Z,121.25
2022-08-27T06:26:21.791Z,114.68
2022-08-27T06:26:55.952Z,134.10
2022-08-27T06:27:30.897Z,120.10
2022-08-27T06:28:06.690Z,124.10
2022-08-27T06:28:42.089Z,123.82
2022-08-27T06:29:16.285Z,136.40
2022-08-27T06:29:51.923Z,123.93
2022-08-27T06:30:26.018Z,121.35
2022-08-27T06:31:08.247Z,126.90
2022-08-27T06:31:43.235Z,126.97
2022-08-27T06:32:20.394Z,133.20
2022-08-27T06:32:54.499Z,134.98
2022-08-27T06:33:29.920Z,130.00
2022-08-27T06:34:07.672Z,135.82
2022-08-27T06:34:42.344Z,122.03
2022-08-27T06:35:18.020Z,135.07
2022-08-27T06:35:54.337Z,127.97
2022-08-27T06:36:28.245Z,130.05
2022-08-27T06:37:02.377Z,123.57
2022-08-27T06:37:38.173Z,124.75
2022-08-27T06:38:12.543Z,123.57
2022-08-27T06:38:48.646Z,127.20
2022-08-27T06:39:25.047Z,123.68
2022-08-27T06:40:03.841Z,135.63
2022-08-27T06:40:37.711Z,126.68
2022-08-27T06:41:23.280Z,129.13
2022-08-27T06:41:59.079Z,124.35
2022-08-27T06:42:34.799Z,130.48
2022-08-27T06:43:10.628Z,131.73
2022-08-27T06:43:45.826Z,124.38
2022-08-27T06:44:21.056Z,132.55
2022-08-27T06:44:56.059Z,132.93
2022-08-27T06:45:30.598Z,138.73
2022-08-27T06:46:07.331Z,131.07
2022-08-27T06:46:44.047Z,146.18
2022-08-27T06:47:19.157Z,131.07
2022-08-27T06:47:56.353Z,131.57
2022-08-27T06:48:30.146Z,128.23
2022-08-27T06:49:09.556Z,135.05
2022-08-27T06:49:43.832Z,122.85
2022-08-27T06:50:25.435Z,131.73
2022-08-27T06:51:03.050Z,128.88
2022-08-27T06:51:38.409Z,127.22
2022-08-27T06:52:13.870Z,131.05
2022-08-27T06:52:47.703Z,118.40
2022-08-27T06:53:24.338Z,115.50
2022-08-27T06:54:00.579Z,115.40
2022-08-27T06:54:35.861Z,116.35
2022-08-27T06:55:12.633Z,114.63
2022-08-27T06:55:47.383Z,121.80
2022-08-27T06:56:20.980Z,123.65
2022-08-27T06:56:55.778Z,118.93
2022-08-27T06:57:29.461Z,87.57
2022-08-27T06:58:04.287Z,104.18
2022-08-27T06:58:39.117Z,121.05
2022-08-27T06:59:16.459Z,112.72
2022-08-27T06:59:50.793Z,113.03
2022-08-27T07:00:25.747Z,106.20
2022-08-27T07:00:59.918Z,107.70
2022-08-27T07:01:34.648Z,115.65
2022-08-27T07:02:12.131Z,110.05
2022-08-27T07:02:45.648Z,115.20
2022-08-27T07:03:18.888Z,114.25
2022-08-27T07:03:54.275Z,100.10
2022-08-27T07:04:32.546Z,99.50
2022-08-27T07:05:09.732Z,105.82
2022-08-27T07:05:43.353Z,96.53
2022-08-27T07:06:17.174Z,112.10
2022-08-27T07:06:53.219Z,85.18
2022-08-27T07:07:36.520Z,81.40
2022-08-27T07:08:14.345Z,93.15
2022-08-27T07:08:53.018Z,94.65
2022-08-27T07:09:30.844Z,81.80
2022-08-27T07:10:04.881Z,82.78
2022-08-27T07:10:39.562Z,65.05
2022-08-27T07:11:17.226Z,66.00
2022-08-27T07:11:50.800Z,64.90
2022-08-27T07:12:30.628Z,60.60
2022-08-27T07:13:05.185Z,65.80
2022-08-27T07:13:40.125Z,63.28
2022-08-27T07:14:13.342Z,58.47
2022-08-27T07:14:47.960Z,70.22
2022-08-27T07:15:24.782Z,53.47
2022-08-27T07:16:00.803Z,54.63
2022-08-27T07:16:39.635Z,61.53
2022-08-27T07:17:18.404Z,56.80
2022-08-27T07:17:52.776Z,58.20
2022-08-27T07:18:29.602Z,59.65
2022-08-27T07:19:05.846Z,59.13
2022-08-27T07:19:40.819Z,61.72
2022-08-27T07:20:18.157Z,60.30
2022-08-27T07:20:54.564Z,61.92
2022-08-27T07:21:29.538Z,73.05
2022-08-27T07:22:04.534Z,69.65
2022-08-27T07:22:41.652Z,62.17
2022-08-27T07:23:17.145Z,57.85
2022-08-27T07:23:51.519Z,63.60
2022-08-27T07:24:26.184Z,57.58
2022-08-27T07:25:00.931Z,50.00
2022-08-27T07:25:35.876Z,52.15
2022-08-27T07:26:11.045Z,53.85
2022-08-27T07:26:47.015Z,49.10
2022-08-27T07:27:21.415Z,58.25
2022-08-27T07:27:56.074Z,55.10
2022-08-27T07:28:31.069Z,49.63
2022-08-27T07:29:05.476Z,51.95
2022-08-27T07:29:39.463Z,47.63
2022-08-27T07:30:17.270Z,60.65
2022-08-27T07:30:51.545Z,54.10
2022-08-27T07:31:25.549Z,53.10
2022-08-27T07:32:00.052Z,47.17
2022-08-27T07:32:35.424Z,46.72
2022-08-27T07:33:09.471Z,45.83
2022-08-27T07:33:51.326Z,48.00
2022-08-27T07:34:27.824Z,38.30
2022-08-27T07:35:02.186Z,43.38
2022-08-27T07:35:38.981Z,45.50
2022-08-27T07:36:12.788Z,44.83
2022-08-27T07:36:48.833Z,43.47